createdAt,value
2018-09-10T00:00:27.539Z,3.73
2018-09-10T00:02:56.070Z,4.57
2018-09-10T00:05:24.628Z,3.90
2018-09-10T00:07:53.900Z,3.80
2018-09-10T00:10:22.559Z,3.43
2018-09-10T00:12:51.131Z,3.53
2018-09-10T00:15:19.808Z,4.10
2018-09-10T00:17:48.372Z,3.67
2018-09-10T00:20:16.951Z,3.90
2018-09-10T00:22:45.632Z,4.50
2018-09-10T00:25:14.195Z,4.37
2018-09-10T00:27:42.745Z,4.10
2018-09-10T00:30:11.667Z,4.17
2018-09-10T00:32:40.214Z,3.73
2018-09-10T00:35:08.787Z,4.00
2018-09-10T00:37:37.627Z,3.23
2018-09-10T00:40:06.218Z,3.43
2018-09-10T00:42:34.842Z,3.43
2018-09-10T00:45:03.635Z,3.83
2018-09-10T00:47:32.227Z,4.10
2018-09-10T00:50:00.788Z,3.90
2018-09-10T00:52:29.368Z,3.73
2018-09-10T00:54:57.911Z,4.50
2018-09-10T00:57:26.465Z,4.23
2018-09-10T00:59:55.120Z,4.27
2018-09-10T01:02:23.683Z,4.40
2018-09-10T01:04:52.242Z,3.37
2018-09-10T01:07:20.920Z,4.00
2018-09-10T01:09:49.459Z,4.33
2018-09-10T01:12:18.028Z,4.43
2018-09-10T01:14:46.611Z,3.60
2018-09-10T01:17:15.163Z,4.60
2018-09-10T01:19:43.763Z,3.40
2018-09-10T01:22:12.424Z,4.30
2018-09-10T01:24:40.972Z,4.17
2018-09-10T01:27:09.537Z,4.10
2018-09-10T01:29:38.419Z,4.27
2018-09-10T01:32:06.970Z,4.77
2018-09-10T01:34:40.783Z,4.00
2018-09-10T01:37:09.335Z,3.57
2018-09-10T01:39:37.879Z,3.73
2018-09-10T01:42:06.860Z,4.33
2018-09-10T01:44:35.392Z,4.23
2018-09-10T01:47:03.948Z,4.03
2018-09-10T01:49:32.632Z,4.10
2018-09-10T01:52:01.187Z,3.73
2018-09-10T01:54:29.739Z,4.70
2018-09-10T01:56:58.307Z,4.53
2018-09-10T01:59:26.860Z,3.60
2018-09-10T02:01:55.412Z,4.23
2018-09-10T02:04:23.995Z,4.20
2018-09-10T02:06:52.567Z,4.23
2018-09-10T02:09:21.127Z,3.80
2018-09-10T02:11:49.807Z,3.90
2018-09-10T02:14:18.432Z,3.53
2018-09-10T02:16:46.999Z,3.80
2018-09-10T02:19:15.576Z,3.70
2018-09-10T02:21:44.119Z,3.40
2018-09-10T02:24:12.739Z,4.50
2018-09-10T02:26:41.701Z,3.63
2018-09-10T02:29:10.306Z,3.80
2018-09-10T02:31:38.887Z,4.07
2018-09-10T02:34:07.475Z,3.30
2018-09-10T02:36:36.027Z,3.60
2018-09-10T02:39:05.876Z,3.60
2018-09-10T02:41:39.203Z,3.70
2018-09-10T02:44:07.772Z,3.67
2018-09-10T02:46:36.340Z,3.87
2018-09-10T02:49:05.088Z,4.37
2018-09-10T02:51:33.679Z,3.97
2018-09-10T02:54:02.228Z,4.50
2018-09-10T02:56:30.861Z,3.90
2018-09-10T02:58:59.839Z,4.37
2018-09-10T03:01:28.423Z,4.00
2018-09-10T03:03:57.208Z,4.10
2018-09-10T03:06:25.819Z,3.90
2018-09-10T03:08:54.362Z,3.83
2018-09-10T03:11:22.937Z,4.47
2018-09-10T03:13:51.551Z,4.77
2018-09-10T03:16:20.103Z,4.43
2018-09-10T03:18:48.739Z,5.07
2018-09-10T03:21:17.299Z,4.10
2018-09-10T03:23:45.869Z,4.67
2018-09-10T03:26:14.451Z,4.37
2018-09-10T03:28:43.016Z,3.67
2018-09-10T03:31:11.568Z,4.77
2018-09-10T03:33:40.262Z,4.80
2018-09-10T03:36:08.759Z,4.13
2018-09-10T03:38:37.312Z,4.20
2018-09-10T03:41:05.972Z,4.33
2018-09-10T03:43:34.528Z,4.27
2018-09-10T03:46:03.079Z,4.27
2018-09-10T03:48:31.656Z,3.90
2018-09-10T03:51:00.223Z,4.13
2018-09-10T03:53:28.776Z,4.87
2018-09-10T03:55:57.372Z,3.90
2018-09-10T03:58:25.923Z,4.60
2018-09-10T04:00:54.483Z,4.70
2018-09-10T04:03:23.062Z,3.90
2018-09-10T04:05:51.619Z,4.73
2018-09-10T04:08:20.163Z,4.60
2018-09-10T04:10:48.743Z,4.33
2018-09-10T04:13:17.336Z,4.73
2018-09-10T04:15:45.887Z,5.73
2018-09-10T04:18:14.943Z,4.10
2018-09-10T04:20:43.488Z,4.10
2018-09-10T04:23:12.055Z,4.40
2018-09-10T04:25:40.631Z,4.43
2018-09-10T04:28:09.175Z,4.63
2018-09-10T04:30:37.732Z,4.73
2018-09-10T04:33:06.388Z,4.43
2018-09-10T04:35:34.939Z,4.77
2018-09-10T04:38:03.492Z,4.93
2018-09-10T04:40:32.131Z,4.80
2018-09-10T04:43:00.684Z,5.07
2018-09-10T04:45:29.236Z,4.50
2018-09-10T04:47:57.900Z,5.00
2018-09-10T04:50:26.449Z,4.50
2018-09-10T04:52:55.024Z,4.47
2018-09-10T04:55:23.672Z,4.70
2018-09-10T04:57:52.335Z,4.00
2018-09-10T05:00:20.900Z,4.30
2018-09-10T05:02:49.568Z,4.00
2018-09-10T05:05:18.137Z,5.30
2018-09-10T05:07:46.718Z,4.37
2018-09-10T05:10:15.392Z,4.40
2018-09-10T05:12:43.944Z,5.33
2018-09-10T05:15:12.494Z,5.20
2018-09-10T05:17:41.367Z,4.10
2018-09-10T05:20:09.924Z,4.40
2018-09-10T05:22:38.682Z,4.20
2018-09-10T05:25:07.641Z,4.70
2018-09-10T05:27:36.183Z,4.60
2018-09-10T05:30:04.805Z,3.70
2018-09-10T05:32:33.692Z,4.37
2018-09-10T05:35:02.230Z,4.30
2018-09-10T05:37:30.791Z,4.83
2018-09-10T05:39:59.647Z,4.90
2018-09-10T05:42:28.211Z,4.13
2018-09-10T05:44:56.770Z,5.03
2018-09-10T05:47:25.399Z,4.23
2018-09-10T05:49:53.992Z,4.10
2018-09-10T05:52:22.539Z,4.40
2018-09-10T05:54:51.131Z,4.00
2018-09-10T05:57:19.680Z,4.63
2018-09-10T05:59:48.252Z,4.03
2018-09-10T06:02:16.945Z,4.17
2018-09-10T06:04:45.603Z,4.80
2018-09-10T06:07:14.155Z,5.00
2018-09-10T06:09:43.177Z,3.87
2018-09-10T06:12:11.731Z,3.70
2018-09-10T06:14:40.284Z,4.23
2018-09-10T06:17:08.880Z,3.60
2018-09-10T06:19:37.421Z,4.33
2018-09-10T06:22:06.268Z,4.87
2018-09-10T06:24:34.876Z,4.20
2018-09-10T06:27:03.432Z,3.90
2018-09-10T06:29:31.992Z,4.80
2018-09-10T06:32:00.580Z,3.80
2018-09-10T06:34:29.200Z,4.10
2018-09-10T06:36:57.771Z,3.80
2018-09-10T06:39:26.360Z,5.33
2018-09-10T06:41:54.922Z,3.70
2018-09-10T06:44:23.480Z,4.23
2018-09-10T06:46:52.299Z,3.67
2018-09-10T06:49:20.864Z,4.23
2018-09-10T06:51:49.431Z,5.00
2018-09-10T06:54:18.117Z,4.33
2018-09-10T06:56:46.663Z,3.80
2018-09-10T06:59:15.211Z,4.90
2018-09-10T07:01:43.880Z,4.43
2018-09-10T07:04:12.423Z,4.10
2018-09-10T07:06:40.963Z,4.50
2018-09-10T07:09:10.703Z,4.67
2018-09-10T07:11:39.795Z,4.13
2018-09-10T07:14:08.747Z,5.10
2018-09-10T07:16:37.399Z,4.70
2018-09-10T07:19:06.047Z,3.80
2018-09-10T07:21:34.560Z,4.10
2018-09-10T07:24:03.239Z,3.93
2018-09-10T07:26:31.800Z,3.80
2018-09-10T07:29:00.361Z,3.60
2018-09-10T07:31:28.971Z,3.83
2018-09-10T07:33:57.536Z,4.17
2018-09-10T07:36:26.096Z,3.73
2018-09-10T07:38:54.763Z,3.93
2018-09-10T07:41:23.332Z,4.00
2018-09-10T07:43:52.005Z,4.00
2018-09-10T07:46:21.099Z,3.10
2018-09-10T07:48:49.702Z,3.40
2018-09-10T07:51:18.234Z,5.87
2018-09-10T07:53:46.851Z,3.77
2018-09-10T07:56:15.412Z,3.63
2018-09-10T07:58:44.000Z,4.20
2018-09-10T08:01:12.843Z,4.13
2018-09-10T08:03:41.402Z,3.30
2018-09-10T08:06:09.940Z,4.40
2018-09-10T08:08:38.628Z,3.00
2018-09-10T08:11:07.288Z,2.93
2018-09-10T08:13:35.860Z,3.00
2018-09-10T08:16:04.549Z,3.20
2018-09-10T08:18:33.116Z,2.80
2018-09-10T08:21:01.691Z,2.90
2018-09-10T08:23:30.507Z,2.87
2018-09-10T08:25:59.077Z,3.47
2018-09-10T08:28:27.615Z,2.83
2018-09-10T08:30:56.312Z,3.00
2018-09-10T08:33:24.891Z,3.03
2018-09-10T08:35:53.459Z,3.00
2018-09-10T08:38:22.134Z,2.63
2018-09-10T08:40:50.675Z,2.47
2018-09-10T08:43:19.284Z,2.93
2018-09-10T08:45:48.376Z,4.00
2018-09-10T08:48:16.963Z,3.03
2018-09-10T08:50:45.527Z,3.10
2018-09-10T08:53:14.186Z,2.80
2018-09-10T08:55:42.955Z,4.10
2018-09-10T08:58:11.314Z,3.97
2018-09-10T09:00:39.963Z,3.20
2018-09-10T09:03:08.695Z,3.30
2018-09-10T09:05:37.655Z,2.90
2018-09-10T09:08:06.400Z,2.90
2018-09-10T09:10:34.939Z,3.80
2018-09-10T09:13:03.507Z,3.50
2018-09-10T09:15:32.083Z,10.20
2018-09-10T09:18:00.639Z,3.47
2018-09-10T09:20:29.220Z,2.67
2018-09-10T09:22:57.882Z,2.43
2018-09-10T09:25:26.452Z,2.47
2018-09-10T09:27:54.995Z,2.70
2018-09-10T09:30:23.689Z,2.57
2018-09-10T09:32:52.211Z,2.20
2018-09-10T09:35:25.050Z,1.97
2018-09-10T09:37:58.631Z,1.70
2018-09-10T09:40:32.999Z,1.90
2018-09-10T09:43:06.951Z,2.30
2018-09-10T09:45:41.128Z,2.23
2018-09-10T09:48:09.685Z,2.70
2018-09-10T09:50:38.324Z,2.67
2018-09-10T09:53:06.943Z,2.87
2018-09-10T09:55:35.503Z,2.87
2018-09-10T09:58:04.067Z,2.47
2018-09-10T10:00:38.375Z,2.20
2018-09-10T10:03:12.060Z,2.17
2018-09-10T10:05:40.730Z,1.67
2018-09-10T10:08:09.275Z,1.63
2018-09-10T10:10:37.874Z,1.67
2018-09-10T10:13:06.460Z,1.93
2018-09-10T10:15:35.011Z,1.90
2018-09-10T10:18:03.590Z,2.07
2018-09-10T10:20:32.207Z,1.70
2018-09-10T10:23:00.772Z,1.50
2018-09-10T10:25:29.479Z,1.80
2018-09-10T10:27:58.063Z,1.63
2018-09-10T10:30:26.615Z,1.80
2018-09-10T10:32:55.164Z,1.40
2018-09-10T10:35:24.084Z,1.53
2018-09-10T10:37:52.670Z,1.90
2018-09-10T10:40:21.219Z,7.20
2018-09-10T10:42:49.783Z,1.33
2018-09-10T10:45:18.330Z,1.50
2018-09-10T10:47:46.876Z,1.40
2018-09-10T10:50:15.543Z,1.20
2018-09-10T10:52:44.087Z,2.03
2018-09-10T10:55:12.683Z,1.80
2018-09-10T10:57:41.976Z,1.73
2018-09-10T11:00:10.556Z,2.10
2018-09-10T11:02:39.119Z,1.63
2018-09-10T11:05:07.927Z,1.53
2018-09-10T11:07:36.467Z,1.70
2018-09-10T11:10:05.787Z,1.57
2018-09-10T11:12:34.376Z,1.90
2018-09-10T11:15:02.942Z,2.37
2018-09-10T11:17:31.967Z,1.70
2018-09-10T11:20:00.551Z,1.70
2018-09-10T11:22:29.159Z,2.10
2018-09-10T11:24:57.652Z,2.00
2018-09-10T11:27:26.259Z,2.27
2018-09-10T11:29:54.996Z,2.10
2018-09-10T11:32:23.618Z,2.53
2018-09-10T11:34:52.388Z,1.83
2018-09-10T11:37:20.943Z,2.07
2018-09-10T11:39:49.564Z,1.70
2018-09-10T11:42:18.285Z,2.30
2018-09-10T11:44:46.832Z,2.37
2018-09-10T11:47:15.391Z,1.97
2018-09-10T11:49:44.064Z,2.50
2018-09-10T11:52:12.611Z,2.57
2018-09-10T11:54:41.152Z,2.50
2018-09-10T11:57:09.723Z,1.60
2018-09-10T11:59:38.271Z,2.03
2018-09-10T12:02:08.477Z,1.53
2018-09-10T12:04:37.594Z,1.80
2018-09-10T12:07:06.607Z,1.67
2018-09-10T12:09:35.152Z,1.90
2018-09-10T12:12:03.791Z,1.90
2018-09-10T12:14:32.327Z,2.13
2018-09-10T12:17:00.991Z,2.10
2018-09-10T12:19:29.664Z,2.10
2018-09-10T12:21:58.232Z,2.50
2018-09-10T12:24:26.803Z,2.10
2018-09-10T12:26:55.686Z,2.33
2018-09-10T12:29:24.222Z,2.33
2018-09-10T12:31:52.819Z,2.47
2018-09-10T12:34:21.428Z,2.47
2018-09-10T12:36:56.079Z,2.20
2018-09-10T12:39:24.698Z,2.00
2018-09-10T12:41:53.214Z,2.43
2018-09-10T12:44:21.800Z,2.03
2018-09-10T12:46:50.475Z,2.23
2018-09-10T12:49:19.035Z,1.90
2018-09-10T12:51:47.626Z,2.33
2018-09-10T12:54:16.221Z,2.07
2018-09-10T12:56:44.779Z,1.97
2018-09-10T12:59:13.346Z,2.50
2018-09-10T13:01:41.926Z,2.27
2018-09-10T13:04:10.510Z,2.60
2018-09-10T13:06:39.072Z,2.40
2018-09-10T13:09:08.047Z,2.17
2018-09-10T13:11:36.976Z,2.40
2018-09-10T13:14:05.532Z,3.00
2018-09-10T13:16:34.140Z,2.40
2018-09-10T13:19:02.703Z,3.00
2018-09-10T13:21:31.264Z,2.60
2018-09-10T13:24:00.195Z,2.30
2018-09-10T13:26:29.706Z,2.40
2018-09-10T13:28:58.278Z,2.33
2018-09-10T13:31:27.284Z,2.70
2018-09-10T13:33:55.845Z,2.80
2018-09-10T13:36:24.468Z,2.07
2018-09-10T13:38:53.145Z,2.40
2018-09-10T13:41:21.696Z,2.57
2018-09-10T13:43:50.260Z,2.40
2018-09-10T13:46:18.856Z,2.27
2018-09-10T13:48:47.441Z,2.37
2018-09-10T13:51:15.999Z,2.40
2018-09-10T13:53:44.683Z,2.47
2018-09-10T13:56:13.276Z,2.77
2018-09-10T13:58:41.832Z,2.70
2018-09-10T14:01:10.611Z,2.50
2018-09-10T14:03:39.163Z,2.53
2018-09-10T14:06:07.730Z,3.50
2018-09-10T14:08:36.408Z,2.30
2018-09-10T14:11:05.003Z,2.20
2018-09-10T14:13:33.619Z,3.13
2018-09-10T14:16:02.287Z,2.50
2018-09-10T14:18:30.835Z,2.23
2018-09-10T14:20:59.427Z,2.93
2018-09-10T14:23:28.112Z,2.57
2018-09-10T14:25:56.723Z,2.47
2018-09-10T14:28:25.351Z,2.27
2018-09-10T14:30:53.965Z,2.60
2018-09-10T14:33:22.532Z,2.43
2018-09-10T14:35:51.093Z,2.30
2018-09-10T14:38:19.676Z,2.70
2018-09-10T14:40:48.252Z,2.47
2018-09-10T14:43:16.809Z,2.60
2018-09-10T14:45:45.415Z,2.50
2018-09-10T14:48:13.974Z,2.40
2018-09-10T14:50:42.536Z,2.63
2018-09-10T14:53:11.207Z,3.03
2018-09-10T14:55:39.759Z,2.40
2018-09-10T14:58:08.311Z,2.33
2018-09-10T15:00:36.900Z,2.30
2018-09-10T15:03:05.504Z,2.70
2018-09-10T15:05:34.056Z,2.57
2018-09-10T15:08:02.720Z,2.47
2018-09-10T15:10:31.289Z,3.10
2018-09-10T15:12:59.848Z,2.80
2018-09-10T15:15:28.508Z,3.97
2018-09-10T15:17:57.068Z,2.40
2018-09-10T15:20:25.631Z,2.40
2018-09-10T15:22:54.251Z,2.90
2018-09-10T15:25:22.824Z,2.77
2018-09-10T15:27:51.404Z,2.20
2018-09-10T15:30:20.007Z,3.17
2018-09-10T15:32:48.941Z,2.10
2018-09-10T15:35:17.540Z,2.23
2018-09-10T15:37:46.395Z,2.17
2018-09-10T15:40:15.064Z,2.73
2018-09-10T15:42:43.645Z,2.10
2018-09-10T15:45:12.285Z,2.33
2018-09-10T15:47:40.858Z,2.00
2018-09-10T15:50:09.484Z,2.13
2018-09-10T15:52:38.197Z,2.83
2018-09-10T15:55:06.795Z,2.67
2018-09-10T15:57:35.407Z,2.40
2018-09-10T16:00:04.557Z,2.53
2018-09-10T16:02:33.080Z,2.70
2018-09-10T16:05:01.651Z,2.87
2018-09-10T16:07:30.249Z,2.30
2018-09-10T16:09:59.059Z,2.30
2018-09-10T16:12:27.660Z,2.17
2018-09-10T16:14:56.309Z,2.00
2018-09-10T16:17:24.896Z,2.20
2018-09-10T16:19:53.467Z,2.00
2018-09-10T16:22:22.576Z,2.10
2018-09-10T16:24:51.131Z,1.90
2018-09-10T16:27:19.747Z,2.20
2018-09-10T16:29:48.452Z,1.90
2018-09-10T16:32:17.017Z,2.23
2018-09-10T16:34:45.631Z,1.93
2018-09-10T16:37:14.226Z,2.40
2018-09-10T16:39:42.816Z,2.00
2018-09-10T16:42:11.487Z,2.20
2018-09-10T16:44:40.091Z,1.87
2018-09-10T16:47:08.671Z,2.30
2018-09-10T16:49:37.259Z,2.10
2018-09-10T16:52:05.951Z,2.30
2018-09-10T16:54:34.754Z,2.50
2018-09-10T16:57:03.247Z,2.33
2018-09-10T16:59:31.943Z,2.23
2018-09-10T17:02:00.520Z,3.00
2018-09-10T17:04:29.091Z,2.43
2018-09-10T17:06:57.792Z,3.17
2018-09-10T17:09:26.371Z,2.93
2018-09-10T17:11:54.941Z,3.20
2018-09-10T17:14:23.635Z,3.13
2018-09-10T17:16:52.206Z,3.10
2018-09-10T17:19:20.780Z,3.10
2018-09-10T17:21:49.479Z,2.77
2018-09-10T17:24:18.044Z,2.97
2018-09-10T17:26:46.651Z,2.60
2018-09-10T17:29:15.663Z,2.70
2018-09-10T17:31:44.251Z,3.60
2018-09-10T17:34:12.915Z,3.97
2018-09-10T17:36:41.816Z,2.87
2018-09-10T17:39:10.470Z,3.10
2018-09-10T17:41:39.019Z,3.07
2018-09-10T17:44:07.788Z,3.47
2018-09-10T17:46:36.370Z,2.10
2018-09-10T17:49:04.971Z,3.70
2018-09-10T17:51:34.052Z,3.50
2018-09-10T17:54:02.642Z,2.60
2018-09-10T17:56:31.262Z,3.50
2018-09-10T17:58:59.907Z,4.33
2018-09-10T18:01:28.523Z,4.03
2018-09-10T18:03:57.107Z,3.20
2018-09-10T18:06:26.063Z,3.43
2018-09-10T18:08:54.632Z,3.53
2018-09-10T18:11:23.200Z,2.87
2018-09-10T18:13:52.043Z,2.90
2018-09-10T18:16:20.635Z,2.73
2018-09-10T18:18:49.237Z,2.87
2018-09-10T18:21:17.855Z,3.90
2018-09-10T18:23:46.428Z,3.70
2018-09-10T18:26:15.007Z,3.60
2018-09-10T18:28:43.624Z,3.30
2018-09-10T18:31:12.211Z,3.10
2018-09-10T18:33:40.795Z,3.50
2018-09-10T18:36:09.400Z,3.20
2018-09-10T18:38:37.972Z,3.90
2018-09-10T18:41:06.578Z,3.30
2018-09-10T18:43:35.339Z,3.20
2018-09-10T18:46:04.048Z,3.30
2018-09-10T18:48:32.654Z,4.13
2018-09-10T18:51:01.347Z,3.37
2018-09-10T18:53:29.929Z,3.90
2018-09-10T18:55:58.516Z,4.00
2018-09-10T18:58:27.575Z,3.90
2018-09-10T19:00:56.287Z,4.17
2018-09-10T19:03:24.841Z,3.83
2018-09-10T19:05:53.539Z,3.30
2018-09-10T19:08:22.142Z,3.23
2018-09-10T19:10:50.727Z,4.10
2018-09-10T19:13:19.573Z,4.60
2018-09-10T19:15:48.166Z,4.00
2018-09-10T19:18:17.031Z,4.00
2018-09-10T19:20:45.644Z,3.47
2018-09-10T19:23:14.229Z,3.20
2018-09-10T19:25:42.840Z,4.40
2018-09-10T19:28:11.532Z,3.57
2018-09-10T19:30:40.112Z,3.77
2018-09-10T19:33:08.726Z,4.17
2018-09-10T19:35:37.403Z,4.40
2018-09-10T19:38:05.986Z,3.57
2018-09-10T19:40:34.574Z,4.70
2018-09-10T19:43:03.267Z,3.53
2018-09-10T19:45:31.848Z,3.63
2018-09-10T19:48:00.440Z,3.93
2018-09-10T19:50:29.456Z,3.63
2018-09-10T19:52:58.036Z,4.63
2018-09-10T19:55:26.650Z,4.57
2018-09-10T19:57:55.476Z,3.90
2018-09-10T20:00:24.072Z,3.60
2018-09-10T20:02:52.648Z,4.10
2018-09-10T20:05:21.625Z,4.50
2018-09-10T20:07:50.212Z,3.73
2018-09-10T20:10:18.796Z,3.33
2018-09-10T20:12:47.862Z,3.70
2018-09-10T20:15:16.524Z,5.00
2018-09-10T20:17:45.061Z,3.70
2018-09-10T20:20:13.772Z,3.63
2018-09-10T20:22:42.327Z,3.90
2018-09-10T20:25:10.908Z,3.90
2018-09-10T20:27:39.620Z,4.27
2018-09-10T20:30:08.331Z,3.87
2018-09-10T20:32:36.904Z,3.37
2018-09-10T20:35:05.983Z,3.90
2018-09-10T20:37:34.583Z,3.40
2018-09-10T20:40:03.279Z,4.73
2018-09-10T20:42:31.975Z,3.73
2018-09-10T20:45:00.559Z,3.60
2018-09-10T20:47:29.147Z,3.93
2018-09-10T20:49:57.818Z,3.67
2018-09-10T20:52:26.441Z,3.60
2018-09-10T20:54:55.007Z,4.40
2018-09-10T20:57:23.608Z,4.53
2018-09-10T20:59:52.176Z,4.03
2018-09-10T21:02:21.048Z,4.17
2018-09-10T21:04:49.643Z,3.93
2018-09-10T21:07:18.208Z,4.07
2018-09-10T21:09:46.788Z,4.20
2018-09-10T21:12:15.516Z,4.20
2018-09-10T21:14:44.075Z,4.13
2018-09-10T21:17:12.648Z,4.03
2018-09-10T21:19:41.562Z,3.83
2018-09-10T21:22:10.151Z,4.10
2018-09-10T21:24:38.748Z,5.13
2018-09-10T21:27:07.448Z,4.30
2018-09-10T21:29:36.031Z,4.43
2018-09-10T21:32:04.609Z,4.40
2018-09-10T21:34:33.259Z,4.73
2018-09-10T21:37:01.900Z,4.20
2018-09-10T21:39:30.474Z,4.20
2018-09-10T21:41:59.167Z,5.83
2018-09-10T21:44:27.719Z,4.90
2018-09-10T21:46:56.314Z,4.60
2018-09-10T21:49:25.191Z,4.67
2018-09-10T21:51:53.844Z,3.90
2018-09-10T21:54:22.507Z,4.40
2018-09-10T21:56:51.595Z,4.57
2018-09-10T21:59:20.518Z,4.03
2018-09-10T22:01:49.083Z,4.60
2018-09-10T22:04:17.779Z,4.27
2018-09-10T22:06:46.331Z,5.20
2018-09-10T22:09:14.891Z,4.20
2018-09-10T22:11:48.728Z,4.50
2018-09-10T22:14:17.338Z,4.10
2018-09-10T22:16:45.899Z,4.30
2018-09-10T22:19:14.491Z,4.43
2018-09-10T22:21:43.504Z,4.80
2018-09-10T22:24:12.057Z,4.20
2018-09-10T22:26:40.776Z,4.50
2018-09-10T22:29:09.355Z,5.10
2018-09-10T22:31:37.911Z,4.50
2018-09-10T22:34:07.047Z,4.67
2018-09-10T22:36:35.632Z,4.77
2018-09-10T22:39:04.972Z,4.17
2018-09-10T22:41:33.574Z,4.57
2018-09-10T22:44:02.140Z,4.43
2018-09-10T22:46:30.811Z,4.43
2018-09-10T22:48:59.351Z,6.60
2018-09-10T22:51:27.896Z,4.30
2018-09-10T22:53:56.872Z,4.50
2018-09-10T22:56:25.424Z,5.20
2018-09-10T22:58:54.051Z,4.73
2018-09-10T23:01:22.772Z,4.90
2018-09-10T23:03:51.800Z,4.37
2018-09-10T23:06:20.359Z,4.33
2018-09-10T23:08:49.485Z,5.67
2018-09-10T23:11:18.027Z,4.40
2018-09-10T23:13:46.603Z,4.73
2018-09-10T23:16:15.172Z,4.60
2018-09-10T23:18:43.825Z,4.90
2018-09-10T23:21:12.374Z,4.87
2018-09-10T23:23:41.115Z,4.80
2018-09-10T23:26:09.744Z,4.50
2018-09-10T23:28:38.380Z,4.20
2018-09-10T23:31:08.211Z,4.60
2018-09-10T23:33:37.267Z,6.50
2018-09-10T23:36:05.815Z,3.90
2018-09-10T23:38:34.463Z,4.60
2018-09-10T23:41:02.995Z,4.37
2018-09-10T23:43:31.539Z,5.53
2018-09-10T23:46:00.367Z,4.60
2018-09-10T23:48:28.915Z,5.23
2018-09-10T23:50:57.575Z,5.30
2018-09-10T23:53:26.583Z,5.20
2018-09-10T23:55:55.583Z,4.47
2018-09-10T23:58:24.123Z,4.67
